sensor_id;sensor_type;location;lat;lon;timestamp;temperature;humidity
22781;DHT22;11557;50.884;4.322;2023-08-30T00:00:19;17.70;99.90
22781;DHT22;11557;50.884;4.322;2023-08-30T00:02:48;17.60;99.90
22781;DHT22;11557;50.884;4.322;2023-08-30T00:05:14;17.60;99.90
22781;DHT22;11557;50.884;4.322;2023-08-30T00:07:40;17.50;99.90
22781;DHT22;11557;50.884;4.322;2023-08-30T00:10:07;17.50;99.90
22781;DHT22;11557;50.884;4.322;2023-08-30T00:12:33;17.40;99.90
22781;DHT22;11557;50.884;4.322;2023-08-30T00:14:59;17.50;99.90
22781;DHT22;11557;50.884;4.322;2023-08-30T00:17:25;17.50;99.90
22781;DHT22;11557;50.884;4.322;2023-08-30T00:19:50;17.40;99.90
22781;DHT22;11557;50.884;4.322;2023-08-30T00:22:18;17.30;99.90
22781;DHT22;11557;50.884;4.322;2023-08-30T00:24:44;17.30;99.90
22781;DHT22;11557;50.884;4.322;2023-08-30T00:27:11;17.20;99.90
22781;DHT22;11557;50.884;4.322;2023-08-30T00:29:37;17.20;99.90
22781;DHT22;11557;50.884;4.322;2023-08-30T00:32:04;17.10;99.90
22781;DHT22;11557;50.884;4.322;2023-08-30T00:34:29;17.00;99.90
22781;DHT22;11557;50.884;4.322;2023-08-30T00:36:55;17.00;99.90
22781;DHT22;11557;50.884;4.322;2023-08-30T00:39:21;16.90;99.90
22781;DHT22;11557;50.884;4.322;2023-08-30T00:41:46;17.10;99.90
22781;DHT22;11557;50.884;4.322;2023-08-30T00:44:12;17.30;99.90
22781;DHT22;11557;50.884;4.322;2023-08-30T00:46:37;17.20;99.90
22781;DHT22;11557;50.884;4.322;2023-08-30T00:49:03;17.30;99.90
22781;DHT22;11557;50.884;4.322;2023-08-30T00:51:30;17.10;99.90
22781;DHT22;11557;50.884;4.322;2023-08-30T00:53:56;16.70;99.90
22781;DHT22;11557;50.884;4.322;2023-08-30T00:56:23;16.70;99.90
22781;DHT22;11557;50.884;4.322;2023-08-30T00:58:49;16.60;99.90
22781;DHT22;11557;50.884;4.322;2023-08-30T01:01:16;16.70;99.90
22781;DHT22;11557;50.884;4.322;2023-08-30T01:03:42;16.70;99.90
22781;DHT22;11557;50.884;4.322;2023-08-30T01:06:08;16.70;99.90
22781;DHT22;11557;50.884;4.322;2023-08-30T01:08:35;16.70;99.90
22781;DHT22;11557;50.884;4.322;2023-08-30T01:11:29;16.70;99.90
22781;DHT22;11557;50.884;4.322;2023-08-30T01:14:04;16.60;99.90
22781;DHT22;11557;50.884;4.322;2023-08-30T01:16:31;16.70;99.90
22781;DHT22;11557;50.884;4.322;2023-08-30T01:18:59;16.60;99.90
22781;DHT22;11557;50.884;4.322;2023-08-30T01:21:35;16.70;99.90
22781;DHT22;11557;50.884;4.322;2023-08-30T01:24:10;16.60;99.90
22781;DHT22;11557;50.884;4.322;2023-08-30T01:29:31;16.80;99.90
22781;DHT22;11557;50.884;4.322;2023-08-30T01:31:57;16.60;99.90
22781;DHT22;11557;50.884;4.322;2023-08-30T01:34:24;16.60;99.90
22781;DHT22;11557;50.884;4.322;2023-08-30T01:36:51;16.60;99.90
22781;DHT22;11557;50.884;4.322;2023-08-30T01:39:17;16.50;99.90
22781;DHT22;11557;50.884;4.322;2023-08-30T01:41:43;16.50;99.90
22781;DHT22;11557;50.884;4.322;2023-08-30T01:44:11;16.50;99.90
22781;DHT22;11557;50.884;4.322;2023-08-30T01:46:38;16.60;99.90
22781;DHT22;11557;50.884;4.322;2023-08-30T01:49:04;16.40;99.90
22781;DHT22;11557;50.884;4.322;2023-08-30T01:51:32;16.30;99.90
22781;DHT22;11557;50.884;4.322;2023-08-30T01:53:58;16.30;99.90
22781;DHT22;11557;50.884;4.322;2023-08-30T01:56:24;16.40;99.90
22781;DHT22;11557;50.884;4.322;2023-08-30T01:58:50;16.40;99.90
22781;DHT22;11557;50.884;4.322;2023-08-30T02:01:15;16.50;99.90
22781;DHT22;11557;50.884;4.322;2023-08-30T02:03:44;16.50;99.90
22781;DHT22;11557;50.884;4.322;2023-08-30T02:06:26;16.60;99.90
22781;DHT22;11557;50.884;4.322;2023-08-30T02:09:09;16.50;99.90
22781;DHT22;11557;50.884;4.322;2023-08-30T02:11:41;16.40;99.90
22781;DHT22;11557;50.884;4.322;2023-08-30T02:14:10;16.50;99.90
22781;DHT22;11557;50.884;4.322;2023-08-30T02:16:38;16.50;99.90
22781;DHT22;11557;50.884;4.322;2023-08-30T02:19:06;16.70;99.90
22781;DHT22;11557;50.884;4.322;2023-08-30T02:21:32;16.60;99.90
22781;DHT22;11557;50.884;4.322;2023-08-30T02:23:58;16.80;99.90
22781;DHT22;11557;50.884;4.322;2023-08-30T02:26:24;16.80;99.90
22781;DHT22;11557;50.884;4.322;2023-08-30T02:28:49;16.90;99.90
22781;DHT22;11557;50.884;4.322;2023-08-30T02:31:15;17.00;99.90
22781;DHT22;11557;50.884;4.322;2023-08-30T02:33:41;17.10;99.90
22781;DHT22;11557;50.884;4.322;2023-08-30T02:36:07;17.10;99.90
22781;DHT22;11557;50.884;4.322;2023-08-30T02:38:33;16.60;99.90
22781;DHT22;11557;50.884;4.322;2023-08-30T02:40:59;17.00;99.90
22781;DHT22;11557;50.884;4.322;2023-08-30T02:43:24;17.00;99.90
22781;DHT22;11557;50.884;4.322;2023-08-30T02:45:50;17.10;99.90
22781;DHT22;11557;50.884;4.322;2023-08-30T02:48:17;17.10;99.90
22781;DHT22;11557;50.884;4.322;2023-08-30T02:50:43;17.10;99.90
22781;DHT22;11557;50.884;4.322;2023-08-30T02:53:09;17.10;99.90
22781;DHT22;11557;50.884;4.322;2023-08-30T02:55:35;17.10;99.90
22781;DHT22;11557;50.884;4.322;2023-08-30T02:58:01;17.20;99.90
22781;DHT22;11557;50.884;4.322;2023-08-30T03:00:26;17.20;99.90
22781;DHT22;11557;50.884;4.322;2023-08-30T03:02:52;17.30;99.90
22781;DHT22;11557;50.884;4.322;2023-08-30T03:05:18;17.30;99.90
22781;DHT22;11557;50.884;4.322;2023-08-30T03:07:44;17.40;99.90
22781;DHT22;11557;50.884;4.322;2023-08-30T03:10:11;17.40;99.90
22781;DHT22;11557;50.884;4.322;2023-08-30T03:12:37;17.30;99.90
22781;DHT22;11557;50.884;4.322;2023-08-30T03:15:03;17.40;99.90
22781;DHT22;11557;50.884;4.322;2023-08-30T03:17:30;17.10;99.90
22781;DHT22;11557;50.884;4.322;2023-08-30T03:19:55;16.90;99.90
22781;DHT22;11557;50.884;4.322;2023-08-30T03:22:21;16.80;99.90
22781;DHT22;11557;50.884;4.322;2023-08-30T03:24:47;16.80;99.90
22781;DHT22;11557;50.884;4.322;2023-08-30T03:27:15;16.80;99.90
22781;DHT22;11557;50.884;4.322;2023-08-30T03:29:40;16.80;99.90
22781;DHT22;11557;50.884;4.322;2023-08-30T03:32:06;16.70;99.90
22781;DHT22;11557;50.884;4.322;2023-08-30T03:34:32;16.40;99.90
22781;DHT22;11557;50.884;4.322;2023-08-30T03:36:57;16.30;99.90
22781;DHT22;11557;50.884;4.322;2023-08-30T03:39:23;16.40;99.90
22781;DHT22;11557;50.884;4.322;2023-08-30T03:41:50;16.40;99.90
22781;DHT22;11557;50.884;4.322;2023-08-30T03:44:16;16.20;99.90
22781;DHT22;11557;50.884;4.322;2023-08-30T03:46:42;16.70;99.90
22781;DHT22;11557;50.884;4.322;2023-08-30T03:49:07;16.20;99.90
22781;DHT22;11557;50.884;4.322;2023-08-30T03:51:33;16.10;99.90
22781;DHT22;11557;50.884;4.322;2023-08-30T03:53:59;16.20;99.90
22781;DHT22;11557;50.884;4.322;2023-08-30T03:56:25;16.20;99.90
22781;DHT22;11557;50.884;4.322;2023-08-30T03:58:50;16.20;99.90
22781;DHT22;11557;50.884;4.322;2023-08-30T04:01:16;16.10;99.90
22781;DHT22;11557;50.884;4.322;2023-08-30T04:03:41;16.00;99.90
22781;DHT22;11557;50.884;4.322;2023-08-30T04:06:07;16.10;99.90
22781;DHT22;11557;50.884;4.322;2023-08-30T04:08:33;16.20;99.90
22781;DHT22;11557;50.884;4.322;2023-08-30T04:10:59;16.20;99.90
22781;DHT22;11557;50.884;4.322;2023-08-30T04:13:24;16.20;99.90
22781;DHT22;11557;50.884;4.322;2023-08-30T04:15:51;16.30;99.90
22781;DHT22;11557;50.884;4.322;2023-08-30T04:18:17;16.10;99.90
22781;DHT22;11557;50.884;4.322;2023-08-30T04:20:46;16.20;99.90
22781;DHT22;11557;50.884;4.322;2023-08-30T04:23:12;16.30;99.90
22781;DHT22;11557;50.884;4.322;2023-08-30T04:25:38;16.50;99.90
22781;DHT22;11557;50.884;4.322;2023-08-30T04:28:04;16.40;99.90
22781;DHT22;11557;50.884;4.322;2023-08-30T04:30:30;16.60;99.90
22781;DHT22;11557;50.884;4.322;2023-08-30T04:32:55;16.60;99.90
22781;DHT22;11557;50.884;4.322;2023-08-30T04:35:21;16.50;99.90
22781;DHT22;11557;50.884;4.322;2023-08-30T04:37:47;16.40;99.90
22781;DHT22;11557;50.884;4.322;2023-08-30T04:40:16;16.50;99.90
22781;DHT22;11557;50.884;4.322;2023-08-30T04:42:41;16.30;99.90
22781;DHT22;11557;50.884;4.322;2023-08-30T04:45:08;16.10;99.90
22781;DHT22;11557;50.884;4.322;2023-08-30T04:47:35;16.20;99.90
22781;DHT22;11557;50.884;4.322;2023-08-30T04:50:00;16.00;99.90
22781;DHT22;11557;50.884;4.322;2023-08-30T04:52:26;15.90;99.90
22781;DHT22;11557;50.884;4.322;2023-08-30T04:54:52;16.00;99.90
22781;DHT22;11557;50.884;4.322;2023-08-30T04:57:18;16.00;99.90
22781;DHT22;11557;50.884;4.322;2023-08-30T04:59:44;16.10;99.90
22781;DHT22;11557;50.884;4.322;2023-08-30T05:02:10;16.00;99.90
22781;DHT22;11557;50.884;4.322;2023-08-30T05:04:36;16.00;99.90
22781;DHT22;11557;50.884;4.322;2023-08-30T05:07:02;15.80;99.90
22781;DHT22;11557;50.884;4.322;2023-08-30T05:09:29;15.80;99.90
22781;DHT22;11557;50.884;4.322;2023-08-30T05:11:55;15.60;99.90
22781;DHT22;11557;50.884;4.322;2023-08-30T05:14:21;15.50;99.90
22781;DHT22;11557;50.884;4.322;2023-08-30T05:16:46;15.50;99.90
22781;DHT22;11557;50.884;4.322;2023-08-30T05:19:12;15.60;99.90
22781;DHT22;11557;50.884;4.322;2023-08-30T05:21:38;15.60;99.90
22781;DHT22;11557;50.884;4.322;2023-08-30T05:24:04;15.40;99.90
22781;DHT22;11557;50.884;4.322;2023-08-30T05:26:33;15.30;99.90
22781;DHT22;11557;50.884;4.322;2023-08-30T05:28:59;15.10;99.90
22781;DHT22;11557;50.884;4.322;2023-08-30T05:31:25;15.00;99.90
22781;DHT22;11557;50.884;4.322;2023-08-30T05:33:50;15.00;99.90
22781;DHT22;11557;50.884;4.322;2023-08-30T05:36:17;15.10;99.90
22781;DHT22;11557;50.884;4.322;2023-08-30T05:38:42;15.00;99.90
22781;DHT22;11557;50.884;4.322;2023-08-30T05:41:08;14.90;99.90
22781;DHT22;11557;50.884;4.322;2023-08-30T05:43:34;15.00;99.90
22781;DHT22;11557;50.884;4.322;2023-08-30T05:46:01;14.90;99.90
22781;DHT22;11557;50.884;4.322;2023-08-30T05:48:32;14.90;99.90
22781;DHT22;11557;50.884;4.322;2023-08-30T05:50:58;15.00;99.90
22781;DHT22;11557;50.884;4.322;2023-08-30T05:53:23;15.00;99.90
22781;DHT22;11557;50.884;4.322;2023-08-30T05:55:49;15.00;99.90
22781;DHT22;11557;50.884;4.322;2023-08-30T05:58:15;14.90;99.90
22781;DHT22;11557;50.884;4.322;2023-08-30T06:00:41;14.90;99.90
22781;DHT22;11557;50.884;4.322;2023-08-30T06:03:07;15.10;99.90
22781;DHT22;11557;50.884;4.322;2023-08-30T06:05:33;15.20;99.90
22781;DHT22;11557;50.884;4.322;2023-08-30T06:07:59;15.30;99.90
22781;DHT22;11557;50.884;4.322;2023-08-30T06:10:27;15.50;99.90
22781;DHT22;11557;50.884;4.322;2023-08-30T06:12:53;15.60;99.90
22781;DHT22;11557;50.884;4.322;2023-08-30T06:15:18;15.50;99.90
22781;DHT22;11557;50.884;4.322;2023-08-30T06:17:44;15.50;99.90
22781;DHT22;11557;50.884;4.322;2023-08-30T06:20:12;15.40;99.90
22781;DHT22;11557;50.884;4.322;2023-08-30T06:22:38;15.50;99.90
22781;DHT22;11557;50.884;4.322;2023-08-30T06:25:04;15.50;99.90
22781;DHT22;11557;50.884;4.322;2023-08-30T06:27:32;15.50;99.90
22781;DHT22;11557;50.884;4.322;2023-08-30T06:29:58;15.30;99.90
22781;DHT22;11557;50.884;4.322;2023-08-30T06:32:24;15.20;99.90
22781;DHT22;11557;50.884;4.322;2023-08-30T06:34:49;15.30;99.90
22781;DHT22;11557;50.884;4.322;2023-08-30T06:37:15;15.40;99.90
22781;DHT22;11557;50.884;4.322;2023-08-30T06:39:41;15.40;99.90
22781;DHT22;11557;50.884;4.322;2023-08-30T06:42:06;15.50;99.90
22781;DHT22;11557;50.884;4.322;2023-08-30T06:44:32;15.60;99.90
22781;DHT22;11557;50.884;4.322;2023-08-30T06:46:58;15.60;99.90
22781;DHT22;11557;50.884;4.322;2023-08-30T06:49:24;15.50;99.90
22781;DHT22;11557;50.884;4.322;2023-08-30T06:51:50;15.50;99.90
22781;DHT22;11557;50.884;4.322;2023-08-30T06:54:16;15.50;99.90
22781;DHT22;11557;50.884;4.322;2023-08-30T06:56:56;15.50;99.90
22781;DHT22;11557;50.884;4.322;2023-08-30T06:59:22;15.60;99.90
22781;DHT22;11557;50.884;4.322;2023-08-30T07:01:47;15.40;99.90
22781;DHT22;11557;50.884;4.322;2023-08-30T07:04:13;15.20;99.90
22781;DHT22;11557;50.884;4.322;2023-08-30T07:06:39;15.40;99.90
22781;DHT22;11557;50.884;4.322;2023-08-30T07:09:04;15.50;99.90
22781;DHT22;11557;50.884;4.322;2023-08-30T07:11:31;15.50;99.90
22781;DHT22;11557;50.884;4.322;2023-08-30T07:13:57;15.50;99.90
22781;DHT22;11557;50.884;4.322;2023-08-30T07:16:23;15.60;99.90
22781;DHT22;11557;50.884;4.322;2023-08-30T07:18:48;15.70;99.90
22781;DHT22;11557;50.884;4.322;2023-08-30T07:21:15;15.90;99.90
22781;DHT22;11557;50.884;4.322;2023-08-30T07:23:41;15.90;99.90
22781;DHT22;11557;50.884;4.322;2023-08-30T07:26:06;15.80;99.90
22781;DHT22;11557;50.884;4.322;2023-08-30T07:28:32;15.80;99.90
22781;DHT22;11557;50.884;4.322;2023-08-30T07:31:04;15.80;99.90
22781;DHT22;11557;50.884;4.322;2023-08-30T07:33:30;15.80;99.90
22781;DHT22;11557;50.884;4.322;2023-08-30T07:35:56;15.90;99.90
22781;DHT22;11557;50.884;4.322;2023-08-30T07:38:22;16.10;99.90
22781;DHT22;11557;50.884;4.322;2023-08-30T07:40:47;16.20;99.90
22781;DHT22;11557;50.884;4.322;2023-08-30T07:43:13;16.10;99.90
22781;DHT22;11557;50.884;4.322;2023-08-30T07:45:39;16.20;99.90
22781;DHT22;11557;50.884;4.322;2023-08-30T07:48:04;16.30;99.90
22781;DHT22;11557;50.884;4.322;2023-08-30T07:50:30;16.40;99.90
22781;DHT22;11557;50.884;4.322;2023-08-30T07:52:56;16.40;99.90
22781;DHT22;11557;50.884;4.322;2023-08-30T07:55:21;16.20;99.90
22781;DHT22;11557;50.884;4.322;2023-08-30T07:57:47;16.30;99.90
22781;DHT22;11557;50.884;4.322;2023-08-30T08:00:13;16.40;99.90
22781;DHT22;11557;50.884;4.322;2023-08-30T08:02:39;16.30;99.90
22781;DHT22;11557;50.884;4.322;2023-08-30T08:05:05;16.20;99.90
22781;DHT22;11557;50.884;4.322;2023-08-30T08:07:31;16.20;99.90
22781;DHT22;11557;50.884;4.322;2023-08-30T08:09:57;16.20;99.90
22781;DHT22;11557;50.884;4.322;2023-08-30T08:12:22;16.30;99.90
22781;DHT22;11557;50.884;4.322;2023-08-30T08:14:48;16.40;99.90
22781;DHT22;11557;50.884;4.322;2023-08-30T08:17:14;16.40;99.90
22781;DHT22;11557;50.884;4.322;2023-08-30T08:19:40;16.60;99.90
22781;DHT22;11557;50.884;4.322;2023-08-30T08:22:08;16.70;99.90
22781;DHT22;11557;50.884;4.322;2023-08-30T08:24:33;16.80;99.90
22781;DHT22;11557;50.884;4.322;2023-08-30T08:26:59;16.90;99.90
22781;DHT22;11557;50.884;4.322;2023-08-30T08:29:27;16.80;99.90
22781;DHT22;11557;50.884;4.322;2023-08-30T08:31:53;16.80;99.90
22781;DHT22;11557;50.884;4.322;2023-08-30T08:34:19;16.90;99.90
22781;DHT22;11557;50.884;4.322;2023-08-30T08:36:45;17.00;99.90
22781;DHT22;11557;50.884;4.322;2023-08-30T08:39:10;17.20;99.90
22781;DHT22;11557;50.884;4.322;2023-08-30T08:44:06;17.10;99.90
22781;DHT22;11557;50.884;4.322;2023-08-30T08:46:34;17.30;99.90
22781;DHT22;11557;50.884;4.322;2023-08-30T08:49:05;17.30;99.90
22781;DHT22;11557;50.884;4.322;2023-08-30T08:51:34;17.40;99.90
22781;DHT22;11557;50.884;4.322;2023-08-30T08:54:03;17.50;99.90
22781;DHT22;11557;50.884;4.322;2023-08-30T08:56:30;17.60;99.90
22781;DHT22;11557;50.884;4.322;2023-08-30T08:58:56;17.50;99.90
22781;DHT22;11557;50.884;4.322;2023-08-30T09:01:23;17.70;99.90
22781;DHT22;11557;50.884;4.322;2023-08-30T09:03:50;17.70;99.90
22781;DHT22;11557;50.884;4.322;2023-08-30T09:06:16;17.70;99.90
22781;DHT22;11557;50.884;4.322;2023-08-30T09:08:42;17.80;99.90
22781;DHT22;11557;50.884;4.322;2023-08-30T09:11:08;17.90;99.90
22781;DHT22;11557;50.884;4.322;2023-08-30T09:13:34;18.00;99.90
22781;DHT22;11557;50.884;4.322;2023-08-30T09:15:59;18.00;99.90
22781;DHT22;11557;50.884;4.322;2023-08-30T09:18:25;18.00;99.90
22781;DHT22;11557;50.884;4.322;2023-08-30T09:21:07;18.10;99.90
22781;DHT22;11557;50.884;4.322;2023-08-30T09:23:33;18.30;99.90
22781;DHT22;11557;50.884;4.322;2023-08-30T09:26:00;18.30;99.90
22781;DHT22;11557;50.884;4.322;2023-08-30T09:28:26;18.50;99.90
22781;DHT22;11557;50.884;4.322;2023-08-30T09:30:52;18.50;99.90
22781;DHT22;11557;50.884;4.322;2023-08-30T09:33:22;18.40;99.90
22781;DHT22;11557;50.884;4.322;2023-08-30T09:35:48;18.10;99.90
22781;DHT22;11557;50.884;4.322;2023-08-30T09:38:20;18.00;99.90
22781;DHT22;11557;50.884;4.322;2023-08-30T09:40:47;18.20;99.90
22781;DHT22;11557;50.884;4.322;2023-08-30T09:43:19;18.40;99.90
22781;DHT22;11557;50.884;4.322;2023-08-30T09:45:47;18.40;99.90
22781;DHT22;11557;50.884;4.322;2023-08-30T09:48:13;18.50;99.90
22781;DHT22;11557;50.884;4.322;2023-08-30T09:50:39;18.40;99.90
22781;DHT22;11557;50.884;4.322;2023-08-30T09:53:08;18.30;99.90
22781;DHT22;11557;50.884;4.322;2023-08-30T09:55:38;18.30;99.90
22781;DHT22;11557;50.884;4.322;2023-08-30T09:58:05;18.30;99.90
22781;DHT22;11557;50.884;4.322;2023-08-30T10:00:32;18.20;99.90
22781;DHT22;11557;50.884;4.322;2023-08-30T10:02:59;18.20;99.90
22781;DHT22;11557;50.884;4.322;2023-08-30T10:05:29;18.30;99.90
22781;DHT22;11557;50.884;4.322;2023-08-30T10:07:56;18.30;99.90
22781;DHT22;11557;50.884;4.322;2023-08-30T10:10:23;18.30;99.90
22781;DHT22;11557;50.884;4.322;2023-08-30T10:12:49;18.20;99.90
22781;DHT22;11557;50.884;4.322;2023-08-30T10:15:16;18.10;99.90
22781;DHT22;11557;50.884;4.322;2023-08-30T10:17:45;18.10;99.90
22781;DHT22;11557;50.884;4.322;2023-08-30T10:20:11;18.20;99.90
22781;DHT22;11557;50.884;4.322;2023-08-30T10:22:40;18.40;99.90
22781;DHT22;11557;50.884;4.322;2023-08-30T10:25:17;18.60;99.90
22781;DHT22;11557;50.884;4.322;2023-08-30T10:27:46;18.70;99.90
22781;DHT22;11557;50.884;4.322;2023-08-30T10:30:13;18.90;99.90
22781;DHT22;11557;50.884;4.322;2023-08-30T10:32:44;19.20;99.90
22781;DHT22;11557;50.884;4.322;2023-08-30T10:35:14;19.50;99.90
22781;DHT22;11557;50.884;4.322;2023-08-30T10:37:40;19.50;99.90
22781;DHT22;11557;50.884;4.322;2023-08-30T10:40:06;19.60;99.90
22781;DHT22;11557;50.884;4.322;2023-08-30T10:42:33;19.50;99.90
22781;DHT22;11557;50.884;4.322;2023-08-30T10:45:00;19.30;99.90
22781;DHT22;11557;50.884;4.322;2023-08-30T10:47:28;19.50;99.90
22781;DHT22;11557;50.884;4.322;2023-08-30T10:49:59;19.70;99.90
22781;DHT22;11557;50.884;4.322;2023-08-30T10:52:26;19.80;99.90
22781;DHT22;11557;50.884;4.322;2023-08-30T10:54:52;19.80;99.90
22781;DHT22;11557;50.884;4.322;2023-08-30T10:57:20;19.90;99.90
22781;DHT22;11557;50.884;4.322;2023-08-30T11:00:05;19.70;99.90
22781;DHT22;11557;50.884;4.322;2023-08-30T11:02:32;19.70;99.90
22781;DHT22;11557;50.884;4.322;2023-08-30T11:04:59;19.70;99.90
22781;DHT22;11557;50.884;4.322;2023-08-30T11:07:27;19.70;99.90
22781;DHT22;11557;50.884;4.322;2023-08-30T11:09:54;19.60;99.90
22781;DHT22;11557;50.884;4.322;2023-08-30T11:12:20;19.70;99.90
22781;DHT22;11557;50.884;4.322;2023-08-30T11:14:49;19.60;99.90
22781;DHT22;11557;50.884;4.322;2023-08-30T11:17:19;19.50;99.90
22781;DHT22;11557;50.884;4.322;2023-08-30T11:19:45;19.70;99.90
22781;DHT22;11557;50.884;4.322;2023-08-30T11:22:12;20.00;99.90
22781;DHT22;11557;50.884;4.322;2023-08-30T11:24:40;20.30;99.90
22781;DHT22;11557;50.884;4.322;2023-08-30T11:27:06;20.40;99.90
22781;DHT22;11557;50.884;4.322;2023-08-30T11:29:32;20.40;99.90
22781;DHT22;11557;50.884;4.322;2023-08-30T11:31:58;20.30;99.90
22781;DHT22;11557;50.884;4.322;2023-08-30T11:34:24;20.30;99.90
22781;DHT22;11557;50.884;4.322;2023-08-30T11:36:50;20.40;99.90
22781;DHT22;11557;50.884;4.322;2023-08-30T11:39:16;20.40;99.90
22781;DHT22;11557;50.884;4.322;2023-08-30T11:41:45;20.40;99.90
22781;DHT22;11557;50.884;4.322;2023-08-30T11:44:11;20.40;99.90
22781;DHT22;11557;50.884;4.322;2023-08-30T11:46:37;20.50;99.90
22781;DHT22;11557;50.884;4.322;2023-08-30T11:49:03;20.60;99.90
22781;DHT22;11557;50.884;4.322;2023-08-30T11:51:29;20.40;99.90
22781;DHT22;11557;50.884;4.322;2023-08-30T11:53:55;20.60;99.90
22781;DHT22;11557;50.884;4.322;2023-08-30T11:56:23;20.50;99.90
22781;DHT22;11557;50.884;4.322;2023-08-30T11:58:49;20.50;99.90
22781;DHT22;11557;50.884;4.322;2023-08-30T12:01:18;20.50;99.90
22781;DHT22;11557;50.884;4.322;2023-08-30T12:03:45;20.60;99.90
22781;DHT22;11557;50.884;4.322;2023-08-30T12:06:16;20.60;99.90
22781;DHT22;11557;50.884;4.322;2023-08-30T12:08:42;20.80;99.90
22781;DHT22;11557;50.884;4.322;2023-08-30T12:11:18;20.80;99.90
22781;DHT22;11557;50.884;4.322;2023-08-30T12:13:44;20.70;99.90
22781;DHT22;11557;50.884;4.322;2023-08-30T12:16:15;20.50;99.90
22781;DHT22;11557;50.884;4.322;2023-08-30T12:18:42;20.50;99.90
22781;DHT22;11557;50.884;4.322;2023-08-30T12:21:08;20.70;99.90
22781;DHT22;11557;50.884;4.322;2023-08-30T12:23:34;20.80;99.90
22781;DHT22;11557;50.884;4.322;2023-08-30T12:26:01;20.90;99.90
22781;DHT22;11557;50.884;4.322;2023-08-30T12:28:29;21.00;99.90
22781;DHT22;11557;50.884;4.322;2023-08-30T12:30:56;21.20;99.90
22781;DHT22;11557;50.884;4.322;2023-08-30T12:33:22;21.30;99.90
22781;DHT22;11557;50.884;4.322;2023-08-30T12:35:48;21.20;99.90
22781;DHT22;11557;50.884;4.322;2023-08-30T12:38:14;21.20;99.90
22781;DHT22;11557;50.884;4.322;2023-08-30T12:40:47;21.30;99.90
22781;DHT22;11557;50.884;4.322;2023-08-30T12:43:13;21.40;99.90
22781;DHT22;11557;50.884;4.322;2023-08-30T12:45:40;21.30;99.90
22781;DHT22;11557;50.884;4.322;2023-08-30T12:48:10;21.10;99.90
22781;DHT22;11557;50.884;4.322;2023-08-30T12:50:36;20.90;99.90
22781;DHT22;11557;50.884;4.322;2023-08-30T12:53:03;21.00;99.90
22781;DHT22;11557;50.884;4.322;2023-08-30T12:55:29;21.30;99.90
22781;DHT22;11557;50.884;4.322;2023-08-30T12:57:55;21.40;99.90
22781;DHT22;11557;50.884;4.322;2023-08-30T13:00:21;21.40;99.90
22781;DHT22;11557;50.884;4.322;2023-08-30T13:02:47;21.40;99.90
22781;DHT22;11557;50.884;4.322;2023-08-30T13:05:12;21.20;99.90
22781;DHT22;11557;50.884;4.322;2023-08-30T13:07:38;21.10;99.90
22781;DHT22;11557;50.884;4.322;2023-08-30T13:10:05;20.90;99.90
22781;DHT22;11557;50.884;4.322;2023-08-30T13:12:31;21.00;99.90
22781;DHT22;11557;50.884;4.322;2023-08-30T13:14:57;21.10;99.90
22781;DHT22;11557;50.884;4.322;2023-08-30T13:17:23;21.20;99.90
22781;DHT22;11557;50.884;4.322;2023-08-30T13:19:48;21.10;99.90
22781;DHT22;11557;50.884;4.322;2023-08-30T13:22:15;21.00;99.90
22781;DHT22;11557;50.884;4.322;2023-08-30T13:24:40;21.00;99.90
22781;DHT22;11557;50.884;4.322;2023-08-30T13:27:06;21.00;99.90
22781;DHT22;11557;50.884;4.322;2023-08-30T13:29:32;21.10;99.90
22781;DHT22;11557;50.884;4.322;2023-08-30T13:31:57;21.00;99.90
22781;DHT22;11557;50.884;4.322;2023-08-30T13:34:23;20.90;99.90
22781;DHT22;11557;50.884;4.322;2023-08-30T13:36:49;20.80;99.90
22781;DHT22;11557;50.884;4.322;2023-08-30T13:39:14;20.70;99.90
22781;DHT22;11557;50.884;4.322;2023-08-30T13:41:40;20.50;99.90
22781;DHT22;11557;50.884;4.322;2023-08-30T13:44:06;20.60;99.90
22781;DHT22;11557;50.884;4.322;2023-08-30T13:46:32;20.60;99.90
22781;DHT22;11557;50.884;4.322;2023-08-30T13:48:58;20.60;99.90
22781;DHT22;11557;50.884;4.322;2023-08-30T13:51:25;20.60;99.90
22781;DHT22;11557;50.884;4.322;2023-08-30T13:53:52;20.60;99.90
22781;DHT22;11557;50.884;4.322;2023-08-30T13:56:21;20.70;99.90
22781;DHT22;11557;50.884;4.322;2023-08-30T13:58:48;20.60;99.90
22781;DHT22;11557;50.884;4.322;2023-08-30T14:01:13;20.60;99.90
22781;DHT22;11557;50.884;4.322;2023-08-30T14:03:39;20.40;99.90
22781;DHT22;11557;50.884;4.322;2023-08-30T14:06:05;20.30;99.90
22781;DHT22;11557;50.884;4.322;2023-08-30T14:08:31;20.30;99.90
22781;DHT22;11557;50.884;4.322;2023-08-30T14:10:57;20.30;99.90
22781;DHT22;11557;50.884;4.322;2023-08-30T14:13:23;20.20;99.90
22781;DHT22;11557;50.884;4.322;2023-08-30T14:15:49;20.50;99.90
22781;DHT22;11557;50.884;4.322;2023-08-30T14:18:15;20.50;99.90
22781;DHT22;11557;50.884;4.322;2023-08-30T14:20:42;20.40;99.90
22781;DHT22;11557;50.884;4.322;2023-08-30T14:23:08;20.40;99.90
22781;DHT22;11557;50.884;4.322;2023-08-30T14:25:34;20.30;99.90
22781;DHT22;11557;50.884;4.322;2023-08-30T14:28:00;20.10;99.90
22781;DHT22;11557;50.884;4.322;2023-08-30T14:30:26;20.10;99.90
22781;DHT22;11557;50.884;4.322;2023-08-30T14:32:52;20.20;99.90
22781;DHT22;11557;50.884;4.322;2023-08-30T14:35:18;20.20;99.90
22781;DHT22;11557;50.884;4.322;2023-08-30T14:37:46;20.20;99.90
22781;DHT22;11557;50.884;4.322;2023-08-30T14:40:13;20.10;99.90
22781;DHT22;11557;50.884;4.322;2023-08-30T14:42:39;20.40;99.90
22781;DHT22;11557;50.884;4.322;2023-08-30T14:45:06;20.60;99.90
22781;DHT22;11557;50.884;4.322;2023-08-30T14:47:33;20.60;99.90
22781;DHT22;11557;50.884;4.322;2023-08-30T14:49:59;20.60;99.90
22781;DHT22;11557;50.884;4.322;2023-08-30T14:52:28;20.60;99.90
22781;DHT22;11557;50.884;4.322;2023-08-30T14:54:54;20.60;99.90
22781;DHT22;11557;50.884;4.322;2023-08-30T14:57:19;20.70;99.90
22781;DHT22;11557;50.884;4.322;2023-08-30T14:59:45;20.50;99.90
22781;DHT22;11557;50.884;4.322;2023-08-30T15:02:11;20.40;99.90
22781;DHT22;11557;50.884;4.322;2023-08-30T15:04:37;20.40;99.90
22781;DHT22;11557;50.884;4.322;2023-08-30T15:07:02;20.40;99.90
22781;DHT22;11557;50.884;4.322;2023-08-30T15:09:30;20.40;99.90
22781;DHT22;11557;50.884;4.322;2023-08-30T15:11:55;20.30;99.90
22781;DHT22;11557;50.884;4.322;2023-08-30T15:14:26;20.50;99.90
22781;DHT22;11557;50.884;4.322;2023-08-30T15:16:52;20.50;99.90
22781;DHT22;11557;50.884;4.322;2023-08-30T15:19:17;20.40;99.90
22781;DHT22;11557;50.884;4.322;2023-08-30T15:21:44;20.30;99.90
22781;DHT22;11557;50.884;4.322;2023-08-30T15:24:10;20.40;99.90
22781;DHT22;11557;50.884;4.322;2023-08-30T15:26:38;20.40;99.90
22781;DHT22;11557;50.884;4.322;2023-08-30T15:29:03;20.40;99.90
22781;DHT22;11557;50.884;4.322;2023-08-30T15:31:30;20.50;99.90